Home > Products > Valid Products > MTR

000
SAUS41 KLWX 030837
MTRRSP
METAR KRSP 030754Z AUTO 10SM CLR 20/13 A2991 RMK AO2 SLP118
T02000133 $





000
SAUS41 KLWX 030800
MTRRYT
METAR KRYT 030753Z AUTO 20004KT 10SM CLR 22/14 A2987 RMK AO2 SLP098
T02170144 $





000
SAUS41 KLWX 030758
MTRDMH
METAR KDMH 030754Z AUTO 23/16 A2987 RMK AO1 SLP113 T02330161





000
SAUS41 KLWX 030756
MTRNAK
METAR KNAK 030754Z AUTO 00000KT 10SM CLR 22/17 A2986 RMK AO2 SLP114
T02170172





000
SAUS41 KLWX 030756
MTRNAK
METAR KNAK 030754Z AUTO 00000KT 10SM CLR 22/17 A2986 RMK AO2 SLP114
T02170172





000
SAUS41 KLWX 030737
MTRRSP
METAR KRSP 030654Z AUTO 10SM CLR 20/13 A2992 RMK AO2 SLP121
T02000133 $





000
SAUS41 KLWX 030737
MTRRSP
METAR KRSP 030654Z AUTO 10SM CLR 20/13 A2992 RMK AO2 SLP121
T02000133 $





000
SAUS41 KLWX 030700
MTRRYT
METAR KRYT 030653Z AUTO VRB05KT 10SM CLR 22/14 A2987 RMK AO2 SLP099
T02170144 $





000
SAUS41 KLWX 030700
MTRRYT
METAR KRYT 030653Z AUTO VRB05KT 10SM CLR 22/14 A2987 RMK AO2 SLP099
T02170144 $





000
SAUS41 KLWX 030658
MTRDMH
METAR KDMH 030654Z AUTO 23/16 A2988 RMK AO1 SLP117 T02330161





000
SAUS41 KLWX 030658
MTRDMH
METAR KDMH 030654Z AUTO 23/16 A2988 RMK AO1 SLP117 T02330161





000
SAUS41 KLWX 030656
MTRNAK
METAR KNAK 030654Z AUTO 00000KT 10SM CLR 22/16 A2987 RMK AO2 SLP116
T02220161





000
SAUS41 KLWX 030656
MTRNAK
METAR KNAK 030654Z AUTO 00000KT 10SM CLR 22/16 A2987 RMK AO2 SLP116
T02220161





000
SAUS41 KLWX 030637
MTRRSP
METAR KRSP 030554Z AUTO 10SM CLR 21/13 A2993 RMK AO2 SLP126
T02060133 10228 20200 56006 $





000
SAUS41 KLWX 030637
MTRRSP
METAR KRSP 030554Z AUTO 10SM CLR 21/13 A2993 RMK AO2 SLP126
T02060133 10228 20200 56006 $





000
SAUS41 KLWX 030600
MTRRYT
METAR KRYT 030553Z AUTO VRB04KT 10SM CLR 21/15 A2987 RMK AO2 SLP100
T02110150 10244 20189 58012 $





000
SAUS41 KLWX 030600
MTRRYT
METAR KRYT 030553Z AUTO VRB04KT 10SM CLR 21/15 A2987 RMK AO2 SLP100
T02110150 10244 20189 58012 $





000
SAUS41 KLWX 030558
MTRDMH
METAR KDMH 030554Z AUTO 24/16 A2988 RMK AO1 SLP117 T02390156 10294
20239 58007





000
SAUS41 KLWX 030555
MTRNAK
METAR KNAK 030554Z AUTO 00000KT 10SM CLR 23/16 A2987 RMK AO2 SLP117
T02280161 10278 20222 58009





000
SAUS41 KLWX 030537
MTRRSP
METAR KRSP 030454Z AUTO 10SM CLR 21/14 A2993 RMK AO2 SLP125
T02060139 402720167 $





000
SAUS41 KLWX 030500
MTRRYT
METAR KRYT 030453Z AUTO VRB04KT 10SM CLR 23/15 A2988 RMK AO2 SLP103
T02280150 402890156 $





000
SAUS41 KLWX 030458
MTRDMH
METAR KDMH 030454Z AUTO 24/15 A2989 RMK AO1 SLP122 T02440150
403220228





000
SAUS41 KLWX 030458
MTRDMH
METAR KDMH 030454Z AUTO 24/15 A2989 RMK AO1 SLP122 T02440150
403220228





000
SAUS41 KLWX 030455
MTRNAK
METAR KNAK 030454Z AUTO 00000KT 10SM CLR 23/16 A2989 RMK AO2 SLP123
T02280161 402940211





000
SAUS41 KLWX 030455
MTRNAK
METAR KNAK 030454Z AUTO 00000KT 10SM CLR 23/16 A2989 RMK AO2 SLP123
T02280161 402940211





000
SAUS41 KLWX 030437
MTRRSP
METAR KRSP 030354Z AUTO 10SM CLR 21/14 A2995 RMK AO2 SLP131
T02060144 $





000
SAUS41 KLWX 030400
MTRRYT
METAR KRYT 030353Z AUTO VRB03KT 10SM CLR 21/16 A2990 RMK AO2 SLP112
T02060156 $





000
SAUS41 KLWX 030358
MTRDMH
METAR KDMH 030354Z AUTO 26/15 A2989 RMK AO1 SLP121 T02560150





000
SAUS41 KLWX 030355
MTRNAK
METAR KNAK 030354Z AUTO 00000KT 10SM CLR 24/16 A2989 RMK AO2 SLP122
T02390161





000
SAUS41 KLWX 030337
MTRRSP
METAR KRSP 030254Z AUTO 10SM CLR 21/14 A2995 RMK AO2 SLP134
T02110144 58007 $





000
SAUS41 KLWX 030300
MTRRYT
METAR KRYT 030253Z AUTO 20004KT 10SM CLR 21/16 A2990 RMK AO2 SLP114
T02110156 58003 $





000
SAUS41 KLWX 030258
MTRDMH
METAR KDMH 030254Z AUTO 26/15 A2990 RMK AO1 SLP125 T02610150 50003





000
SAUS41 KLWX 030258
MTRDMH
METAR KDMH 030254Z AUTO 26/15 A2990 RMK AO1 SLP125 T02610150 50003





000
SAUS41 KLWX 030256
MTRNAK
METAR KNAK 030254Z AUTO 00000KT 10SM CLR 24/16 A2990 RMK AO2 SLP126
T02390161 50000





000
SAUS41 KLWX 030237
MTRRSP
METAR KRSP 030154Z AUTO 10SM CLR 21/14 A2997 RMK AO2 SLP234
T02110144 $





000
SAUS41 KLWX 030200
MTRRYT
METAR KRYT 030153Z AUTO VRB04KT 10SM CLR 22/16 A2991 RMK AO2 SLP117
T02220156 $





000
SAUS41 KLWX 030158
MTRDMH
METAR KDMH 030154Z AUTO 27/14 A2990 RMK AO1 SLP126 T02720144





000
SAUS41 KLWX 030155
MTRNAK
METAR KNAK 030154Z AUTO 29003KT 10SM CLR 26/18 A2990 RMK AO2 SLP128
T02560178





000
SAUS41 KLWX 030155
MTRNAK
METAR KNAK 030154Z AUTO 29003KT 10SM CLR 26/18 A2990 RMK AO2 SLP128
T02560178





000
SAUS41 KLWX 030137
MTRRSP
METAR KRSP 030054Z AUTO 10SM CLR 22/14 A2997 RMK AO2 SLP235
T02220139 $





000
SAUS41 KLWX 030100
MTRRYT
METAR KRYT 030053Z AUTO 00000KT 10SM CLR 21/17 A2991 RMK AO2 SLP118
T02110167 $





000
SAUS41 KLWX 030100
MTRRYT
METAR KRYT 030053Z AUTO 00000KT 10SM CLR 21/17 A2991 RMK AO2 SLP118
T02110167 $





000
SAUS41 KLWX 030058
MTRDMH
METAR KDMH 030054Z AUTO 28/14 A2991 RMK AO1 SLP126 T02780144





000
SAUS41 KLWX 030055
MTRNAK
METAR KNAK 030054Z AUTO 24003KT 10SM CLR 26/15 A2990 RMK AO2 SLP127
T02610150





000
SAUS41 KLWX 030055
MTRNAK
METAR KNAK 030054Z AUTO 24003KT 10SM CLR 26/15 A2990 RMK AO2 SLP127
T02610150





000
SAUS41 KLWX 030037
MTRRSP
METAR KRSP 022354Z AUTO 10SM CLR 23/13 A2997 RMK AO2 SLP236
T02280133 10272 20228 55002 $





000
SAUS41 KLWX 030037
MTRRSP
METAR KRSP 022354Z AUTO 10SM CLR 23/13 A2997 RMK AO2 SLP236
T02280133 10272 20228 55002 $





000
SAUS41 KLWX 030000
MTRRYT
METAR KRYT 022353Z AUTO 00000KT 10SM CLR 24/17 A2991 RMK AO2 SLP119
T02390167 10289 20239 55005 $





000
SAUS41 KLWX 030000
MTRRYT
METAR KRYT 022353Z AUTO 00000KT 10SM CLR 24/17 A2991 RMK AO2 SLP119
T02390167 10289 20239 55005 $





000
SAUS41 KLWX 022358
MTRDMH
METAR KDMH 022354Z AUTO 29/14 A2989 RMK AO1 SLP122 T02940144 10322
20294 55007





000
SAUS41 KLWX 022358
MTRDMH
METAR KDMH 022354Z AUTO 29/14 A2989 RMK AO1 SLP122 T02940144 10322
20294 55007





000
SAUS41 KLWX 022355
MTRNAK
METAR KNAK 022354Z AUTO 24005KT 10SM CLR 28/14 A2990 RMK AO2 SLP126
T02780139 10289 20278 55005





000
SAUS41 KLWX 022355
MTRNAK
METAR KNAK 022354Z AUTO 24005KT 10SM CLR 28/14 A2990 RMK AO2 SLP126
T02780139 10289 20278 55005





000
SAUS41 KLWX 022337
MTRRSP
METAR KRSP 022254Z AUTO 10SM CLR 24/14 A2997 RMK AO2 SLP143
T02390144 $





000
SAUS41 KLWX 022300
MTRRYT
METAR KRYT 022253Z AUTO 24005KT 10SM CLR 27/15 A2991 RMK AO2 SLP118
T02720150 $





000
SAUS41 KLWX 022258
MTRDMH
METAR KDMH 022254Z AUTO 30/12 A2989 RMK AO1 SLP121 T03000122





000
SAUS41 KLWX 022258
MTRDMH
METAR KDMH 022254Z AUTO 30/12 A2989 RMK AO1 SLP121 T03000122





000
SAUS41 KLWX 022255
MTRNAK
METAR KNAK 022254Z AUTO 22007KT 190V250 10SM CLR 28/15 A2989 RMK AO2
SLP124 T02830150





000
SAUS41 KLWX 022237
MTRRSP
METAR KRSP 022154Z AUTO 10SM CLR 25/14 A2997 RMK AO2 SLP141
T02500144 $





000
SAUS41 KLWX 022237
MTRRSP
METAR KRSP 022154Z AUTO 10SM CLR 25/14 A2997 RMK AO2 SLP141
T02500144 $





000
SAUS41 KLWX 022200
MTRRYT
METAR KRYT 022153Z AUTO 23008KT 10SM CLR 28/14 A2991 RMK AO2 SLP117
T02830144 $





000
SAUS41 KLWX 022158
MTRDMH
METAR KDMH 022154Z AUTO 31/11 A2990 RMK AO1 SLP125 T03110111





000
SAUS41 KLWX 022155
MTRNAK
METAR KNAK 022154Z AUTO 19007KT 10SM CLR 28/15 A2990 RMK AO2 SLP127
T02830150





000
SAUS41 KLWX 022137
MTRRSP
METAR KRSP 022054Z AUTO 10SM CLR 26/15 A2998 RMK AO2 SLP238
T02610150 58011 $





000
SAUS41 KLWX 022100
MTRRYT
METAR KRYT 022053Z AUTO 23008KT 10SM CLR 28/14 A2993 RMK AO2 SLP122
T02830144 58009 $





000
SAUS41 KLWX 022058
MTRDMH
METAR KDMH 022054Z AUTO 32/11 A2991 RMK AO1 SLP129 T03170106 58008





000
SAUS41 KLWX 022055
MTRNAK
METAR KNAK 022054Z AUTO 14011KT 10SM CLR 28/16 A2991 RMK AO2 SLP131
T02830156 58009





000
SAUS41 KLWX 022037
MTRRSP
METAR KRSP 021954Z AUTO 10SM FEW080 26/14 A2999 RMK AO2 SLP148
T02610144 $





000
SAUS41 KLWX 022000
MTRRYT
METAR KRYT 021953Z AUTO 25005KT 10SM CLR 29/15 A2993 RMK AO2 SLP125
T02890150 $





000
SAUS41 KLWX 021958
MTRDMH
METAR KDMH 021954Z AUTO 32/11 A2992 RMK AO1 SLP131 T03170106





000
SAUS41 KLWX 021958
MTRDMH
METAR KDMH 021954Z AUTO 32/11 A2992 RMK AO1 SLP131 T03170106





000
SAUS41 KLWX 021955
MTRNAK
METAR KNAK 021954Z AUTO 13010KT 10SM CLR 28/15 A2992 RMK AO2 SLP134
T02830150





000
SAUS41 KLWX 021955
MTRNAK
METAR KNAK 021954Z AUTO 13010KT 10SM CLR 28/15 A2992 RMK AO2 SLP134
T02830150





000
SAUS41 KLWX 021937
MTRRSP
METAR KRSP 021854Z AUTO 10SM CLR 27/16 A3001 RMK AO2 SLP153
T02720156 $





000
SAUS41 KLWX 021900
MTRRYT
METAR KRYT 021853Z AUTO VRB05KT 10SM FEW090 28/14 A2995 RMK AO2
SLP131 T02780144 $





000
SAUS41 KLWX 021900
MTRRYT
METAR KRYT 021853Z AUTO VRB05KT 10SM FEW090 28/14 A2995 RMK AO2
SLP131 T02780144 $





000
SAUS41 KLWX 021858
MTRDMH
METAR KDMH 021854Z AUTO 31/11 A2993 RMK AO1 SLP135 T03110111





000
SAUS41 KLWX 021855
MTRNAK
METAR KNAK 021854Z AUTO 12008KT 10SM CLR 28/14 A2993 RMK AO2 SLP137
T02830139





000
SAUS41 KLWX 021855
MTRNAK
METAR KNAK 021854Z AUTO 12008KT 10SM CLR 28/14 A2993 RMK AO2 SLP137
T02830139





000
SAUS41 KLWX 021837
MTRRSP
METAR KRSP 021754Z AUTO 10SM FEW050 SCT080 26/14 A3001 RMK AO2
SLP250 T02610144 10267 20211 56008 $





000
SAUS41 KLWX 021837
MTRRSP
METAR KRSP 021754Z AUTO 10SM FEW050 SCT080 26/14 A3001 RMK AO2
SLP250 T02610144 10267 20211 56008 $





000
SAUS41 KLWX 021800
MTRRYT
METAR KRYT 021753Z AUTO VRB06KT 10SM SCT060 SCT090 28/14 A2996 RMK
AO2 SLP131 T02830144 10283 20194 58007 $





000
SAUS41 KLWX 021800
MTRRYT
METAR KRYT 021753Z AUTO VRB06KT 10SM SCT060 SCT090 28/14 A2996 RMK
AO2 SLP131 T02830144 10283 20194 58007 $





000
SAUS41 KLWX 021758
MTRDMH
METAR KDMH 021754Z AUTO 31/10 A2994 RMK AO1 SLP137 T03060100 10311
20250 58008





000
SAUS41 KLWX 021758
MTRDMH
METAR KDMH 021754Z AUTO 31/10 A2994 RMK AO1 SLP137 T03060100 10311
20250 58008





000
SAUS41 KLWX 021755
MTRNAK
METAR KNAK 021754Z AUTO 13009KT 10SM FEW070 28/15 A2994 RMK AO2
SLP140 T02830150 10294 20233 58008





000
SAUS41 KLWX 021737
MTRRSP
METAR KRSP 021654Z AUTO 10SM FEW047 SCT080 27/13 A3002 RMK AO2
SLP251 T02670128 $





000
SAUS41 KLWX 021700
MTRRYT
METAR KRYT 021653Z AUTO 00000KT 10SM CLR 28/12 A2997 RMK AO2 SLP135
T02780117 $





000
SAUS41 KLWX 021700
MTRRYT
METAR KRYT 021653Z AUTO 00000KT 10SM CLR 28/12 A2997 RMK AO2 SLP135
T02780117 $





000
SAUS41 KLWX 021658
MTRDMH
METAR KDMH 021654Z AUTO 31/13 A2995 RMK AO1 SLP142 T03110128





000
SAUS41 KLWX 021658
MTRDMH
METAR KDMH 021654Z AUTO 31/13 A2995 RMK AO1 SLP142 T03110128





000
SAUS41 KLWX 021655
MTRNAK
METAR KNAK 021654Z AUTO 00000KT 10SM CLR 29/14 A2995 RMK AO2 SLP145
T02890144





000
SAUS41 KLWX 021637
MTRRSP
METAR KRSP 021554Z AUTO 10SM SCT065 26/11 A3003 RMK AO2 SLP256
T02560111 $





000
SAUS41 KLWX 021600
MTRRYT
METAR KRYT 021553Z AUTO VRB03KT 10SM CLR 27/13 A2998 RMK AO2 SLP140
T02720133 $





000
SAUS41 KLWX 021558
MTRDMH
METAR KDMH 021554Z AUTO 30/13 A2996 RMK AO1 SLP145 T03000128





000
SAUS41 KLWX 021558
MTRDMH
METAR KDMH 021554Z AUTO 30/13 A2996 RMK AO1 SLP145 T03000128





000
SAUS41 KLWX 021555
MTRNAK
METAR KNAK 021554Z AUTO 00000KT 10SM CLR 29/12 A2996 RMK AO2 SLP148
T02890122





000
SAUS41 KLWX 021537
MTRRSP
METAR KRSP 021454Z AUTO 10SM FEW065 24/14 A3004 RMK AO2 SLP164
T02390139 51008 $





000
SAUS41 KLWX 021500
MTRRYT
METAR KRYT 021453Z AUTO VRB03KT 10SM CLR 26/14 A2998 RMK AO2 SLP139
T02560139 51005 $





000
SAUS41 KLWX 021458
MTRDMH
METAR KDMH 021454Z AUTO 29/13 A2996 RMK AO1 SLP145 T02890128 51007





000
SAUS41 KLWX 021458
MTRDMH
METAR KDMH 021454Z AUTO 29/13 A2996 RMK AO1 SLP145 T02890128 51007





000
SAUS41 KLWX 021455
MTRNAK
METAR KNAK 021454Z AUTO 00000KT 10SM CLR 27/16 A2996 RMK AO2 SLP148
T02720161 53011





000
SAUS41 KLWX 021437
MTRRSP
METAR KRSP 021354Z AUTO 10SM CLR 23/13 A3003 RMK AO2 SLP161
T02280128 $





000
SAUS41 KLWX 021400
MTRRYT
METAR KRYT 021353Z AUTO 00000KT 10SM CLR 24/14 A2998 RMK AO2 SLP139
T02440139 $





000
SAUS41 KLWX 021357
MTRDMH
METAR KDMH 021354Z AUTO 28/14 A2995 RMK AO1 SLP143 T02830144





000
SAUS41 KLWX 021356
MTRNAK
METAR KNAK 021354Z AUTO 31005KT 10SM CLR 26/17 A2995 RMK AO2 SLP143
T02560172





000
SAUS41 KLWX 021356
MTRNAK
METAR KNAK 021354Z AUTO 31005KT 10SM CLR 26/17 A2995 RMK AO2 SLP143
T02560172





000
SAUS41 KLWX 021337
MTRRSP
METAR KRSP 021254Z AUTO 10SM CLR 22/14 A3003 RMK AO2 SLP161
T02220139 $





000
SAUS41 KLWX 021337
MTRRSP
METAR KRSP 021254Z AUTO 10SM CLR 22/14 A3003 RMK AO2 SLP161
T02220139 $





000
SAUS41 KLWX 021300
MTRRYT
METAR KRYT 021253Z AUTO 00000KT 10SM CLR 22/16 A2997 RMK AO2 SLP140
T02170156 $





000
SAUS41 KLWX 021258
MTRDMH
METAR KDMH 021254Z AUTO 27/15 A2995 RMK AO1 SLP142 T02670150





000
SAUS41 KLWX 021255
MTRNAK
METAR KNAK 021254Z AUTO 31004KT 10SM SCT100 24/17 A2994 RMK AO2
SLP141 T02440167





000
SAUS41 KLWX 021255
MTRNAK
METAR KNAK 021254Z AUTO 31004KT 10SM SCT100 24/17 A2994 RMK AO2
SLP141 T02440167





000
SAUS41 KLWX 021237
MTRRSP
METAR KRSP 021154Z AUTO 10SM CLR 21/14 A3001 RMK AO2 SLP156
T02110144 10211 20167 51008 $





000
SAUS41 KLWX 021200
MTRRYT
METAR KRYT 021153Z AUTO 00000KT 10SM CLR 19/14 A2996 RMK AO2 SLP135
T01940144 10194 20156 51008 $





000
SAUS41 KLWX 021200
MTRRYT
METAR KRYT 021153Z AUTO 00000KT 10SM CLR 19/14 A2996 RMK AO2 SLP135
T01940144 10194 20156 51008 $





000
SAUS41 KLWX 021158
MTRDMH
METAR KDMH 021154Z AUTO 25/14 A2994 RMK AO1 SLP138 T02500144 10250
20228 51011





000
SAUS41 KLWX 021158
MTRDMH
METAR KDMH 021154Z AUTO 25/14 A2994 RMK AO1 SLP138 T02500144 10250
20228 51011





000
SAUS41 KLWX 021155
MTRNAK
METAR KNAK 021154Z AUTO 31003KT 10SM BKN095 23/18 A2993 RMK AO2
SLP137 T02330178 10239 20211 51014





000
SAUS41 KLWX 021155
MTRNAK
METAR KNAK 021154Z AUTO 31003KT 10SM BKN095 23/18 A2993 RMK AO2
SLP137 T02330178 10239 20211 51014





000
SAUS41 KLWX 021137
MTRRSP
METAR KRSP 021054Z AUTO 10SM CLR 18/13 A3001 RMK AO2 SLP154
T01830133 $





000
SAUS41 KLWX 021100
MTRRYT
METAR KRYT 021053Z AUTO 00000KT 10SM CLR 16/13 A2996 RMK AO2 SLP134
T01610133 $





000
SAUS41 KLWX 021058
MTRDMH
METAR KDMH 021054Z AUTO 23/14 A2993 RMK AO1 SLP136 T02280144





000
SAUS41 KLWX 021055
MTRNAK
METAR KNAK 021054Z AUTO 28003KT 10SM BKN095 22/17 A2992 RMK AO2
SLP134 T02170172





000
SAUS41 KLWX 021037
MTRRSP
METAR KRSP 020954Z AUTO 10SM CLR 17/12 A2999 RMK AO2 SLP150
T01720122 $





000
SAUS41 KLWX 021000
MTRRYT
METAR KRYT 020953Z AUTO 00000KT 10SM CLR 17/13 A2994 RMK AO2 SLP128
T01720133 $





000
SAUS41 KLWX 020959
MTRDMH
METAR KDMH 020954Z AUTO 23/14 A2992 RMK AO1 SLP130 T02330144





000
SAUS41 KLWX 020955
MTRNAK
METAR KNAK 020954Z AUTO 29003KT 10SM BKN095 21/18 A2990 RMK AO2
SLP127 T02110178





000
SAUS41 KLWX 020937
MTRRSP
METAR KRSP 020854Z AUTO 10SM CLR 18/12 A2998 RMK AO2 SLP240
T01780122 55000 $





000
SAUS41 KLWX 020900
MTRRYT
METAR KRYT 020853Z AUTO 00000KT 10SM CLR 16/13 A2994 RMK AO2 SLP126
T01560133 51001 $





000
SAUS41 KLWX 020858
MTRDMH
METAR KDMH 020854Z AUTO 24/14 A2991 RMK AO1 SLP127 T02390144 56002





000
SAUS41 KLWX 020858
MTRDMH
METAR KDMH 020854Z AUTO 24/14 A2991 RMK AO1 SLP127 T02390144 56002





000
SAUS41 KLWX 020855
MTRNAK
METAR KNAK 020854Z AUTO 31004KT 10SM FEW100 23/18 A2989 RMK AO2
SLP123 T02280183 58002





000
SAUS41 KLWX 020837
MTRRSP
METAR KRSP 020754Z AUTO 10SM CLR 17/13 A2998 RMK AO2 SLP238
T01720133 $





000
SAUS41 KLWX 020800
MTRRYT
METAR KRYT 020753Z AUTO 21003KT 10SM CLR 17/13 A2994 RMK AO2 SLP125
T01670133 $





000
SAUS41 KLWX 020800
MTRRYT
METAR KRYT 020753Z AUTO 21003KT 10SM CLR 17/13 A2994 RMK AO2 SLP125
T01670133 $





000
SAUS41 KLWX 020758
MTRDMH
METAR KDMH 020754Z AUTO 24/14 A2991 RMK AO1 SLP127 T02440144





000
SAUS41 KLWX 020755
MTRNAK
METAR KNAK 020754Z AUTO 00000KT 10SM FEW100 22/17 A2990 RMK AO2
SLP126 T02170167





000
SAUS41 KLWX 020737
MTRRSP
METAR KRSP 020654Z AUTO 10SM CLR 18/12 A2998 RMK AO2 SLP239
T01780122 $





000
SAUS41 KLWX 020737
MTRRSP
METAR KRSP 020654Z AUTO 10SM CLR 18/12 A2998 RMK AO2 SLP239
T01780122 $





000
SAUS41 KLWX 020700
MTRRYT
METAR KRYT 020653Z AUTO 00000KT 10SM CLR 16/14 A2994 RMK AO2 SLP126
T01610139 $





000
SAUS41 KLWX 020658
MTRDMH
METAR KDMH 020654Z AUTO 24/15 A2991 RMK AO1 SLP128 T02440150





000
SAUS41 KLWX 020656
MTRNAK
METAR KNAK 020654Z AUTO 00000KT 10SM FEW100 22/18 A2990 RMK AO2
SLP127 T02220178





000
SAUS41 KLWX 020656
MTRNAK
METAR KNAK 020654Z AUTO 00000KT 10SM FEW100 22/18 A2990 RMK AO2
SLP127 T02220178





000
SAUS41 KLWX 020637
MTRRSP
METAR KRSP 020554Z AUTO 10SM CLR 18/12 A2998 RMK AO2 SLP240
T01780122 10206 20178 53005 $





000
SAUS41 KLWX 020600
MTRRYT
METAR KRYT 020553Z AUTO 00000KT 10SM CLR 17/13 A2993 RMK AO2 SLP126
T01670133 10233 20167 53004 $





000
SAUS41 KLWX 020558
MTRDMH
METAR KDMH 020554Z AUTO 25/14 A2991 RMK AO1 SLP129 T02500144 10300
20250 53009





000
SAUS41 KLWX 020556
MTRNAK
METAR KNAK 020554Z AUTO 31005KT 10SM SCT100 24/19 A2990 RMK AO2
SLP125 T02390194 10283 20233 51006





000
SAUS41 KLWX 020556
MTRNAK
METAR KNAK 020554Z AUTO 31005KT 10SM SCT100 24/19 A2990 RMK AO2
SLP125 T02390194 10283 20233 51006





000
SAUS41 KLWX 020537
MTRRSP
METAR KRSP 020454Z AUTO 10SM CLR 18/13 A2998 RMK AO2 SLP143
T01780133 402720178 $





000
SAUS41 KLWX 020537
MTRRSP
METAR KRSP 020454Z AUTO 10SM CLR 18/13 A2998 RMK AO2 SLP143
T01780133 402720178 $





000
SAUS41 KLWX 020500
MTRRYT
METAR KRYT 020453Z AUTO 00000KT 10SM CLR 18/13 A2993 RMK AO2 SLP122
T01830133 402940172 $





000
SAUS41 KLWX 020500
MTRRYT
METAR KRYT 020453Z AUTO 00000KT 10SM CLR 18/13 A2993 RMK AO2 SLP122
T01830133 402940172 $





000
SAUS41 KLWX 020458
MTRDMH
METAR KDMH 020454Z AUTO 26/14 A2991 RMK AO1 SLP126 T02560144
403220233





000
SAUS41 KLWX 020456
MTRNAK
METAR KNAK 020454Z AUTO 31003KT 10SM CLR 24/19 A2989 RMK AO2 SLP125
T02390194 403060222





000
SAUS41 KLWX 020437
MTRRSP
METAR KRSP 020354Z AUTO 10SM CLR 18/13 A2997 RMK AO2 SLP140
T01830133 $





000
SAUS41 KLWX 020400
MTRRYT
METAR KRYT 020353Z AUTO 00000KT 10SM CLR 21/13 A2992 RMK AO2 SLP120
T02060133 $





000
SAUS41 KLWX 020358
MTRDMH
METAR KDMH 020354Z AUTO 27/14 A2989 RMK AO1 SLP121 T02670139





000
SAUS41 KLWX 020355
MTRNAK
METAR KNAK 020354Z AUTO 31003KT 10SM SCT100 23/18 A2988 RMK AO2
SLP120 T02330178





000
SAUS41 KLWX 020337
MTRRSP
METAR KRSP 020254Z AUTO 10SM CLR 19/13 A2997 RMK AO2 SLP141
T01890133 51006 $





000
SAUS41 KLWX 020300
MTRRYT
METAR KRYT 020253Z AUTO 00000KT 10SM CLR 20/14 A2992 RMK AO2 SLP120
T02000139 51013 $





000
SAUS41 KLWX 020300
MTRRYT
METAR KRYT 020253Z AUTO 00000KT 10SM CLR 20/14 A2992 RMK AO2 SLP120
T02000139 51013 $





000
SAUS41 KLWX 020258
MTRDMH
METAR KDMH 020254Z AUTO 28/14 A2989 RMK AO1 SLP120 T02780139 51016





000
SAUS41 KLWX 020258
MTRDMH
METAR KDMH 020254Z AUTO 28/14 A2989 RMK AO1 SLP120 T02780139 51016





000
SAUS41 KLWX 020256
MTRNAK
METAR KNAK 020254Z AUTO 00000KT 10SM CLR 24/21 A2988 RMK AO2 SLP119
T02390206 51011





000
SAUS41 KLWX 020237
MTRRSP
METAR KRSP 020154Z AUTO 10SM CLR 21/12 A2997 RMK AO2 SLP234
T02060122 $





000
SAUS41 KLWX 020200
MTRRYT
METAR KRYT 020153Z AUTO 00000KT 10SM CLR 21/13 A2992 RMK AO2 SLP119
T02110133 $





000
SAUS41 KLWX 020200
MTRRYT
METAR KRYT 020153Z AUTO 00000KT 10SM CLR 21/13 A2992 RMK AO2 SLP119
T02110133 $





000
SAUS41 KLWX 020158
MTRDMH
METAR KDMH 020154Z AUTO 28/14 A2988 RMK AO1 SLP117 T02830139





000
SAUS41 KLWX 020155
MTRNAK
METAR KNAK 020154Z AUTO 00000KT 10SM FEW110 24/19 A2987 RMK AO2
SLP117 T02440189





000
SAUS41 KLWX 020137
MTRRSP
METAR KRSP 020054Z AUTO 10SM CLR 20/13 A2997 RMK AO2 SLP141
T02000133 $





000
SAUS41 KLWX 020137
MTRRSP
METAR KRSP 020054Z AUTO 10SM CLR 20/13 A2997 RMK AO2 SLP141
T02000133 $





000
SAUS41 KLWX 020100
MTRRYT
METAR KRYT 020053Z AUTO 00000KT 10SM CLR 22/13 A2990 RMK AO2 SLP113
T02170133 $





000
SAUS41 KLWX 020100
MTRRYT
METAR KRYT 020053Z AUTO 00000KT 10SM CLR 22/13 A2990 RMK AO2 SLP113
T02170133 $





000
SAUS41 KLWX 020059
MTRDMH
METAR KDMH 020054Z AUTO 29/14 A2986 RMK AO1 SLP110 T02940139





000
SAUS41 KLWX 020059
MTRDMH
METAR KDMH 020054Z AUTO 29/14 A2986 RMK AO1 SLP110 T02940139





000
SAUS41 KLWX 020055
MTRNAK
METAR KNAK 020054Z AUTO 00000KT 10SM FEW100 26/19 A2986 RMK AO2
SLP112 T02560189





000
SAUS41 KLWX 020037
MTRRSP
METAR KRSP 012354Z AUTO 10SM CLR 21/13 A2995 RMK AO2 SLP135
T02060133 10272 20206 53007 $





000
SAUS41 KLWX 020037
MTRRSP
METAR KRSP 012354Z AUTO 10SM CLR 21/13 A2995 RMK AO2 SLP135
T02060133 10272 20206 53007 $





000
SAUS41 KLWX 020000
MTRRYT
METAR KRYT 012353Z AUTO 00000KT 10SM CLR 24/14 A2988 RMK AO2 SLP106
T02390144 10294 20239 53007 $





000
SAUS41 KLWX 012358
MTRDMH
METAR KDMH 012354Z AUTO 30/13 A2984 RMK AO1 SLP104 T03000133 10322
20300 53004





000
SAUS41 KLWX 012355
MTRNAK
METAR KNAK 012354Z AUTO 27003KT 10SM BKN110 28/18 A2984 RMK AO2
SLP108 60000 T02830178 10306 20261 53004





000
SAUS41 KLWX 012337
MTRRSP
METAR KRSP 012254Z AUTO 10SM CLR 23/13 A2993 RMK AO2 SLP128
T02280133 $





000
SAUS41 KLWX 012337
MTRRSP
METAR KRSP 012254Z AUTO 10SM CLR 23/13 A2993 RMK AO2 SLP128
T02280133 $





000
SAUS41 KLWX 012300
MTRRYT
METAR KRYT 012253Z AUTO 22003KT 10SM SCT110 27/17 A2986 RMK AO2
SLP099 T02720167 $





000
SAUS41 KLWX 012300
MTRRYT
METAR KRYT 012253Z AUTO 22003KT 10SM SCT110 27/17 A2986 RMK AO2
SLP099 T02720167 $





000
SAUS41 KLWX 012258
MTRDMH
METAR KDMH 012254Z AUTO 31/13 A2983 RMK AO1 SLP102 T03060128





000
SAUS41 KLWX 012258
MTRDMH
METAR KDMH 012254Z AUTO 31/13 A2983 RMK AO1 SLP102 T03060128





000
SAUS41 KLWX 012255
MTRNAK
METAR KNAK 012254Z AUTO 17003KT 10SM SCT070 OVC100 28/21 A2983 RMK
AO2 SLP103 T02830211





000
SAUS41 KLWX 012255
MTRNAK
METAR KNAK 012254Z AUTO 17003KT 10SM SCT070 OVC100 28/21 A2983 RMK
AO2 SLP103 T02830211





000
SAUS41 KLWX 012237
MTRRSP
METAR KRSP 012154Z AUTO 10SM BKN100 24/13 A2993 RMK AO2 SLP220
T02440133 $





000
SAUS41 KLWX 012200
MTRRYT
METAR KRYT 012153Z AUTO 00000KT 10SM FEW080 BKN100 27/13 A2987 RMK
AO2 SLP100 T02720128 $





000
SAUS41 KLWX 012158
MTRDMH
METAR KDMH 012154Z AUTO 31/14 A2983 RMK AO1 SLP102 T03110139





000
SAUS41 KLWX 012155
MTRNAK
METAR KNAK 012154Z AUTO 00000KT 10SM CLR 29/19 A2983 RMK AO2 RAE00
SLP102 P0000 T02890194





000
SAUS41 KLWX 012137
MTRRSP
METAR KRSP 012054Z AUTO 10SM SCT100 26/13 A2993 RMK AO2 SLP124
T02610133 55004 $





000
SAUS41 KLWX 012100
MTRRYT
METAR KRYT 012053Z AUTO VRB04KT 10SM FEW080 BKN100 29/12 A2986 RMK
AO2 SLP096 T02890122 56009 $





000
SAUS41 KLWX 012100
MTRRYT
METAR KRYT 012053Z AUTO VRB04KT 10SM FEW080 BKN100 29/12 A2986 RMK
AO2 SLP096 T02890122 56009 $





000
SAUS41 KLWX 012058
MTRDMH
METAR KDMH 012054Z AUTO 32/14 A2983 RMK AO1 SLP101 T03170144 56009





000
SAUS41 KLWX 012055
MTRNAK
METAR KNAK 012054Z AUTO 00000KT 10SM -RA FEW065 SCT075 BKN090 28/19
A2983 RMK AO2 RAB33 SLP104 P0000 60000 T02780189 56011





000
SAUS41 KLWX 012037
MTRRSP
METAR KRSP 011954Z AUTO 10SM SCT065 27/13 A2993 RMK AO2 SLP124
T02670128 $





000
SAUS41 KLWX 012000
MTRRYT
METAR KRYT 011953Z AUTO 23003KT 10SM FEW070 SCT095 28/13 A2987 RMK
AO2 SLP098 T02830128 $





000
SAUS41 KLWX 012000
MTRRYT
METAR KRYT 011953Z AUTO 23003KT 10SM FEW070 SCT095 28/13 A2987 RMK
AO2 SLP098 T02830128 $





000
SAUS41 KLWX 011958
MTRDMH
METAR KDMH 011954Z AUTO 31/14 A2983 RMK AO1 SLP102 T03110144





000
SAUS41 KLWX 011955
MTRNAK
METAR KNAK 011954Z AUTO 00000KT 10SM BKN065 BKN090 BKN110 29/17
A2984 RMK AO2 SLP106 T02940172





000
SAUS41 KLWX 011937
MTRRSP
METAR KRSP 011854Z AUTO 10SM CLR 26/14 A2993 RMK AO2 SLP125
T02610139 $





000
SAUS41 KLWX 011937
MTRRSP
METAR KRSP 011854Z AUTO 10SM CLR 26/14 A2993 RMK AO2 SLP125
T02610139 $





000
SAUS41 KLWX 011900
MTRRYT
METAR KRYT 011853Z AUTO VRB05KT 10SM SCT070 BKN100 29/14 A2987 RMK
AO2 SLP101 T02890139 $





000
SAUS41 KLWX 011858
MTRDMH
METAR KDMH 011854Z AUTO 31/15 A2985 RMK AO1 SLP108 T03060150





000
SAUS41 KLWX 011858
MTRDMH
METAR KDMH 011854Z AUTO 31/15 A2985 RMK AO1 SLP108 T03060150





000
SAUS41 KLWX 011855
MTRNAK
METAR KNAK 011854Z AUTO 00000KT 10SM BKN065 BKN090 OVC120 29/16
A2985 RMK AO2 SLP109 T02940156





000
SAUS41 KLWX 011855
MTRNAK
METAR KNAK 011854Z AUTO 00000KT 10SM BKN065 BKN090 OVC120 29/16
A2985 RMK AO2 SLP109 T02940156





000
SAUS41 KLWX 011837
MTRRSP
METAR KRSP 011754Z AUTO 10SM FEW090 26/14 A2994 RMK AO2 SLP128
T02610139 10267 20211 58008 $





000
SAUS41 KLWX 011800
MTRRYT
METAR KRYT 011753Z AUTO 00000KT 10SM BKN060 BKN095 27/15 A2989 RMK
AO2 SLP105 T02670150 10278 20217 58006 $





000
SAUS41 KLWX 011800
MTRRYT
METAR KRYT 011753Z AUTO 00000KT 10SM BKN060 BKN095 27/15 A2989 RMK
AO2 SLP105 T02670150 10278 20217 58006 $





000
SAUS41 KLWX 011759
MTRNAK
METAR KNAK 011754Z AUTO 32005KT 10SM BKN110 29/15 A2986 RMK AO2
SLP115 T02940150 10300 20256 58003





000
SAUS41 KLWX 011758
MTRDMH
METAR KDMH 011754Z AUTO 31/13 A2986 RMK AO1 SLP110 T03110133 10317
20261 58008





000
SAUS41 KLWX 011736
MTRRSP
METAR KRSP 011654Z AUTO 10SM FEW046 SCT060 BKN090 25/14 A2995 RMK
AO2 SLP133 T02500144 $





000
SAUS41 KLWX 011736
MTRRSP
METAR KRSP 011654Z AUTO 10SM FEW046 SCT060 BKN090 25/14 A2995 RMK
AO2 SLP133 T02500144 $





000
SAUS41 KLWX 011700
MTRRYT
METAR KRYT 011653Z AUTO 21006KT 10SM FEW055 SCT085 27/15 A2990 RMK
AO2 SLP110 T02670150 $





000
SAUS41 KLWX 011658
MTRDMH
METAR KDMH 011654Z AUTO 31/16 A2988 RMK AO1 SLP116 T03060156





000
SAUS41 KLWX 011655
MTRNAK
METAR KNAK 011654Z AUTO VRB04KT 10SM OVC095 28/17 A2988 RMK AO2
SLP120 T02830172





000
SAUS41 KLWX 011637
MTRRSP
METAR KRSP 011554Z AUTO 10SM FEW070 25/14 A2997 RMK AO2 SLP138
T02500139 $





000
SAUS41 KLWX 011600
MTRRYT
METAR KRYT 011553Z AUTO 00000KT 10SM BKN075 26/15 A2991 RMK AO2
SLP117 T02560150 $





000
SAUS41 KLWX 011558
MTRDMH
METAR KDMH 011554Z AUTO 29/15 A2988 RMK AO1 SLP119 T02940150





000
SAUS41 KLWX 011555
MTRNAK
METAR KNAK 011554Z AUTO 27006KT 10SM BKN100 BKN120 28/18 A2988 RMK
AO2 SLP121 T02830178





000
SAUS41 KLWX 011536
MTRRSP
METAR KRSP 011454Z AUTO 10SM FEW070 24/16 A2996 RMK AO2 SLP137
T02440161 51006 $





000
SAUS41 KLWX 011500
MTRRYT
METAR KRYT 011453Z AUTO 00000KT 10SM SCT090 25/17 A2991 RMK AO2
SLP115 T02500167 51007 $





000
SAUS41 KLWX 011458
MTRDMH
METAR KDMH 011454Z AUTO 28/16 A2988 RMK AO1 SLP118 T02830161 51004





000
SAUS41 KLWX 011455
MTRNAK
METAR KNAK 011454Z AUTO 30007KT 10SM BKN100 BKN120 28/17 A2987 RMK
AO2 SLP118 T02780172 51003





000
SAUS41 KLWX 011437
MTRRSP
METAR KRSP 011354Z AUTO 10SM SCT075 23/16 A2995 RMK AO2 SLP135
T02330161 $





000
SAUS41 KLWX 011400
MTRRYT
METAR KRYT 011353Z AUTO VRB03KT 10SM FEW075 24/16 A2990 RMK AO2
SLP113 T02440161 $





000
SAUS41 KLWX 011358
MTRDMH
METAR KDMH 011354Z AUTO 28/16 A2988 RMK AO1 SLP117 T02780161





000
SAUS41 KLWX 011358
MTRDMH
METAR KDMH 011354Z AUTO 28/16 A2988 RMK AO1 SLP117 T02780161





000
SAUS41 KLWX 011355
MTRNAK
METAR KNAK 011354Z AUTO 29006KT 10SM BKN110 28/17 A2987 RMK AO2
SLP118 T02780167





000
SAUS41 KLWX 011336
MTRRSP
METAR KRSP 011254Z AUTO 10SM CLR 22/16 A2995 RMK AO2 SLP230
T02220161 $





000
SAUS41 KLWX 011336
MTRRSP
METAR KRSP 011254Z AUTO 10SM CLR 22/16 A2995 RMK AO2 SLP230
T02220161 $





000
SAUS41 KLWX 011300
MTRRYT
METAR KRYT 011253Z AUTO 00000KT 10SM FEW100 24/16 A2990 RMK AO2
SLP111 T02390161 $





000
SAUS41 KLWX 011257
MTRDMH
METAR KDMH 011254Z AUTO 27/16 A2988 RMK AO1 SLP117 T02720156





000
SAUS41 KLWX 011255
MTRNAK
METAR KNAK 011254Z AUTO 27006KT 10SM CLR 27/17 A2987 RMK AO2 SLP118
T02670167





000
SAUS41 KLWX 011237
MTRRSP
METAR KRSP 011154Z AUTO 10SM CLR 21/16 A2994 RMK AO2 SLP132
T02110156 10211 20189 53010 $





000
SAUS41 KLWX 011200
MTRRYT
METAR KRYT 011153Z AUTO 00000KT 10SM CLR 22/16 A2989 RMK AO2 SLP108
T02170161 10244 20206 53008 $





000
SAUS41 KLWX 011200
MTRRYT
METAR KRYT 011153Z AUTO 00000KT 10SM CLR 22/16 A2989 RMK AO2 SLP108
T02170161 10244 20206 53008 $





000
SAUS41 KLWX 011158
MTRDMH
METAR KDMH 011154Z AUTO 26/16 A2987 RMK AO1 SLP114 T02610161 10261
20233 53006





000
SAUS41 KLWX 011158
MTRDMH
METAR KDMH 011154Z AUTO 26/16 A2987 RMK AO1 SLP114 T02610161 10261
20233 53006





000
SAUS41 KLWX 011155
MTRNAK
METAR KNAK 011154Z AUTO 32003KT 10SM CLR 26/17 A2986 RMK AO2 SLP115
T02560172 10256 20222 53007





000
SAUS41 KLWX 011155
MTRNAK
METAR KNAK 011154Z AUTO 32003KT 10SM CLR 26/17 A2986 RMK AO2 SLP115
T02560172 10256 20222 53007





000
SAUS41 KLWX 011136
MTRRSP
METAR KRSP 011054Z AUTO 10SM CLR 20/15 A2993 RMK AO2 SLP128
T02000150 $





000
SAUS41 KLWX 011136
MTRRSP
METAR KRSP 011054Z AUTO 10SM CLR 20/15 A2993 RMK AO2 SLP128
T02000150 $





000
SAUS41 KLWX 011100
MTRRYT
METAR KRYT 011053Z AUTO VRB04KT 10SM CLR 22/14 A2988 RMK AO2 SLP104
T02220144 $





000
SAUS41 KLWX 011058
MTRDMH
METAR KDMH 011054Z AUTO 24/16 A2986 RMK AO1 SLP112 T02390161





000
SAUS41 KLWX 011058
MTRDMH
METAR KDMH 011054Z AUTO 24/16 A2986 RMK AO1 SLP112 T02390161





000
SAUS41 KLWX 011055
MTRNAK
METAR KNAK 011054Z AUTO 00000KT 10SM CLR 23/18 A2986 RMK AO2 SLP112
T02330178





000
SAUS41 KLWX 011055
MTRNAK
METAR KNAK 011054Z AUTO 00000KT 10SM CLR 23/18 A2986 RMK AO2 SLP112
T02330178





000
SAUS41 KLWX 011037
MTRRSP
METAR KRSP 010954Z AUTO 10SM CLR 19/14 A2992 RMK AO2 SLP123
T01940144 $





000
SAUS41 KLWX 011000
MTRRYT
METAR KRYT 010953Z AUTO 22005KT 10SM CLR 22/14 A2986 RMK AO2 SLP097
T02220144 $





000
SAUS41 KLWX 010957
MTRDMH
METAR KDMH 010954Z AUTO 24/16 A2985 RMK AO1 SLP108 T02390161





000
SAUS41 KLWX 010955
MTRNAK
METAR KNAK 010954Z AUTO 31003KT 10SM CLR 23/18 A2985 RMK AO2 SLP110
T02280178





000
SAUS41 KLWX 010936
MTRRSP
METAR KRSP 010854Z AUTO 10SM CLR 20/14 A2991 RMK AO2 SLP120
T02000139 56008 $





000
SAUS41 KLWX 010900
MTRRYT
METAR KRYT 010853Z AUTO 22004KT 10SM FEW110 23/14 A2986 RMK AO2
SLP097 T02330144 56008 $





000
SAUS41 KLWX 010900
MTRRYT
METAR KRYT 010853Z AUTO 22004KT 10SM FEW110 23/14 A2986 RMK AO2
SLP097 T02330144 56008 $





000
SAUS41 KLWX 010858
MTRDMH
METAR KDMH 010854Z AUTO 24/17 A2985 RMK AO1 SLP107 T02390167 57008





000
SAUS41 KLWX 010855
MTRNAK
METAR KNAK 010854Z AUTO 27004KT 10SM CLR 23/18 A2984 RMK AO2 SLP108
T02280178 56009





000
SAUS41 KLWX 010836
MTRRSP
METAR KRSP 010754Z AUTO 10SM CLR 19/14 A2992 RMK AO2 SLP121
T01940139 $





000
SAUS41 KLWX 010836
MTRRSP
METAR KRSP 010754Z AUTO 10SM CLR 19/14 A2992 RMK AO2 SLP121
T01940139 $





000
SAUS41 KLWX 010800
MTRRYT
METAR KRYT 010753Z AUTO VRB04KT 10SM CLR 23/14 A2987 RMK AO2 SLP099
T02330139 $





000
SAUS41 KLWX 010758
MTRDMH
METAR KDMH 010754Z AUTO 24/17 A2986 RMK AO1 SLP111 T02440167





000
SAUS41 KLWX 010758
MTRDMH
METAR KDMH 010754Z AUTO 24/17 A2986 RMK AO1 SLP111 T02440167





000
SAUS41 KLWX 010755
MTRNAK
METAR KNAK 010754Z AUTO 24006KT 10SM CLR 23/17 A2985 RMK AO2 SLP110
T02330172





000
SAUS41 KLWX 010737
MTRRSP
METAR KRSP 010654Z AUTO 10SM CLR 20/14 A2993 RMK AO2 SLP124
T02000139 $





000
SAUS41 KLWX 010737
MTRRSP
METAR KRSP 010654Z AUTO 10SM CLR 20/14 A2993 RMK AO2 SLP124
T02000139 $





000
SAUS41 KLWX 010700
MTRRYT
METAR KRYT 010653Z AUTO 23005KT 10SM CLR 23/14 A2988 RMK AO2 SLP101
T02330139 $





000
SAUS41 KLWX 010658
MTRDMH
METAR KDMH 010654Z AUTO 24/16 A2986 RMK AO1 SLP113 T02440161





000
SAUS41 KLWX 010655
MTRNAK
METAR KNAK 010654Z AUTO VRB04KT 10SM CLR 23/18 A2986 RMK AO2 SLP114
T02330178





000
SAUS41 KLWX 010655
MTRNAK
METAR KNAK 010654Z AUTO VRB04KT 10SM CLR 23/18 A2986 RMK AO2 SLP114
T02330178





000
SAUS41 KLWX 010637
MTRRSP
METAR KRSP 010554Z AUTO 10SM CLR 21/13 A2994 RMK AO2 SLP127
T02060133 10222 20206 58007 $





000
SAUS41 KLWX 010637
MTRRSP
METAR KRSP 010554Z AUTO 10SM CLR 21/13 A2994 RMK AO2 SLP127
T02060133 10222 20206 58007 $





000
SAUS41 KLWX 010600
MTRRYT
METAR KRYT 010553Z AUTO 21006KT 10SM CLR 24/14 A2989 RMK AO2 SLP104
T02390139 10250 20194 58005 $





000
SAUS41 KLWX 010600
MTRRYT
METAR KRYT 010553Z AUTO 21006KT 10SM CLR 24/14 A2989 RMK AO2 SLP104
T02390139 10250 20194 58005 $





000
SAUS41 KLWX 010558
MTRDMH
METAR KDMH 010554Z AUTO 25/16 A2987 RMK AO1 SLP116 T02500161 10300
20250 58004





000
SAUS41 KLWX 010558
MTRDMH
METAR KDMH 010554Z AUTO 25/16 A2987 RMK AO1 SLP116 T02500161 10300
20250 58004





000
SAUS41 KLWX 010556
MTRNAK
METAR KNAK 010554Z AUTO 25003KT 10SM CLR 23/17 A2987 RMK AO2 SLP116
T02330172 10283 20233 58005





000
SAUS41 KLWX 010556
MTRNAK
METAR KNAK 010554Z AUTO 25003KT 10SM CLR 23/17 A2987 RMK AO2 SLP116
T02330172 10283 20233 58005





000
SAUS41 KLWX 010536
MTRRSP
METAR KRSP 010454Z AUTO 10SM CLR 22/13 A2995 RMK AO2 SLP130
T02170133 402780167 $





000
SAUS41 KLWX 010536
MTRRSP
METAR KRSP 010454Z AUTO 10SM CLR 22/13 A2995 RMK AO2 SLP130
T02170133 402780167 $





000
SAUS41 KLWX 010500
MTRRYT
METAR KRYT 010453Z AUTO 21006KT 10SM CLR 24/14 A2990 RMK AO2 SLP108
T02440139 403000161 $





000
SAUS41 KLWX 010458
MTRDMH
METAR KDMH 010454Z AUTO 26/16 A2988 RMK AO1 SLP118 T02560156
403220233





000
SAUS41 KLWX 010456
MTRNAK
METAR KNAK 010454Z AUTO 00000KT 10SM CLR 24/17 A2988 RMK AO2 SLP120
T02390167 403110228





000
SAUS41 KLWX 010436
MTRRSP
METAR KRSP 010354Z AUTO 10SM CLR 22/14 A2996 RMK AO2 SLP134
T02170139 $





000
SAUS41 KLWX 010436
MTRRSP
METAR KRSP 010354Z AUTO 10SM CLR 22/14 A2996 RMK AO2 SLP134
T02170139 $





000
SAUS41 KLWX 010400
MTRRYT
METAR KRYT 010353Z AUTO 21004KT 10SM CLR 21/15 A2990 RMK AO2 SLP112
T02110150 $





000
SAUS41 KLWX 010358
MTRDMH
METAR KDMH 010354Z AUTO 26/16 A2989 RMK AO1 SLP120 T02610161





000
SAUS41 KLWX 010358
MTRDMH
METAR KDMH 010354Z AUTO 26/16 A2989 RMK AO1 SLP120 T02610161





000
SAUS41 KLWX 010355
MTRNAK
METAR KNAK 010354Z AUTO 00000KT 10SM CLR 24/18 A2988 RMK AO2 SLP120
T02440183





000
SAUS41 KLWX 010337
MTRRSP
METAR KRSP 010254Z AUTO 10SM CLR 22/14 A2996 RMK AO2 SLP137
T02170139 50007 $





000
SAUS41 KLWX 010300
MTRRYT
METAR KRYT 010253Z AUTO 00000KT 10SM CLR 21/15 A2990 RMK AO2 SLP113
T02060150 51009 $





000
SAUS41 KLWX 010258
MTRDMH
METAR KDMH 010254Z AUTO 27/16 A2988 RMK AO1 SLP119 T02720161 53014





000
SAUS41 KLWX 010258
MTRDMH
METAR KDMH 010254Z AUTO 27/16 A2988 RMK AO1 SLP119 T02720161 53014





000
SAUS41 KLWX 010255
MTRNAK
METAR KNAK 010254Z AUTO 00000KT 10SM CLR 25/19 A2989 RMK AO2 SLP122
T02500189 51014





000
SAUS41 KLWX 010236
MTRRSP
METAR KRSP 010154Z AUTO 10SM CLR 22/14 A2996 RMK AO2 SLP138
T02170139 $





000
SAUS41 KLWX 010236
MTRRSP
METAR KRSP 010154Z AUTO 10SM CLR 22/14 A2996 RMK AO2 SLP138
T02170139 $





000
SAUS41 KLWX 010200
MTRRYT
METAR KRYT 010153Z AUTO 00000KT 10SM CLR 21/16 A2990 RMK AO2 SLP113
T02060161 $





000
SAUS41 KLWX 010158
MTRDMH
METAR KDMH 010154Z AUTO 28/16 A2987 RMK AO1 SLP115 T02780156





000
SAUS41 KLWX 010158
MTRDMH
METAR KDMH 010154Z AUTO 28/16 A2987 RMK AO1 SLP115 T02780156





000
SAUS41 KLWX 010155
MTRNAK
METAR KNAK 010154Z AUTO 00000KT 10SM CLR 25/19 A2988 RMK AO2 SLP119
T02500194





000
SAUS41 KLWX 010137
MTRRSP
METAR KRSP 010054Z AUTO 10SM CLR 22/14 A2995 RMK AO2 SLP135
T02170144 $





000
SAUS41 KLWX 010100
MTRRYT
METAR KRYT 010053Z AUTO 00000KT 10SM CLR 22/16 A2988 RMK AO2 SLP106
T02170161 $





000
SAUS41 KLWX 010058
MTRDMH
METAR KDMH 010054Z AUTO 29/14 A2985 RMK AO1 SLP108 T02890144





000
SAUS41 KLWX 010055
MTRNAK
METAR KNAK 010054Z AUTO 00000KT 10SM CLR 26/18 A2986 RMK AO2 SLP112
T02560183





000
SAUS41 KLWX 010036
MTRRSP
METAR KRSP 312354Z AUTO 10SM CLR 22/14 A2994 RMK AO2 SLP131
T02170144 10278 20217 55003 $





000
SAUS41 KLWX 010000
MTRRYT
METAR KRYT 312353Z AUTO 00000KT 10SM CLR 25/16 A2987 RMK AO2 SLP104
T02500156 10300 20250 55006 $





000
SAUS41 KLWX 010000
MTRRYT
METAR KRYT 312353Z AUTO 00000KT 10SM CLR 25/16 A2987 RMK AO2 SLP104
T02500156 10300 20250 55006 $





000
SAUS41 KLWX 312358
MTRDMH
METAR KDMH 312354Z AUTO 30/13 A2984 RMK AO1 SLP105 T03000128 10322
20300 56006





000
SAUS41 KLWX 312358
MTRDMH
METAR KDMH 312354Z AUTO 30/13 A2984 RMK AO1 SLP105 T03000128 10322
20300 56006





000
SAUS41 KLWX 312356
MTRNAK
METAR KNAK 312354Z AUTO 00000KT 10SM CLR 28/17 A2985 RMK AO2 SLP108
T02830167 10311 20283 55004





000
SAUS41 KLWX 312337
MTRRSP
METAR KRSP 312254Z AUTO 10SM CLR 23/16 A2993 RMK AO2 SLP130
T02330156 $





000
SAUS41 KLWX 312337
MTRRSP
METAR KRSP 312254Z AUTO 10SM CLR 23/16 A2993 RMK AO2 SLP130
T02330156 $





000
SAUS41 KLWX 312300
MTRRYT
METAR KRYT 312253Z AUTO 00000KT 10SM FEW070 28/15 A2987 RMK AO2
SLP103 T02830150 $





000
SAUS41 KLWX 312300
MTRRYT
METAR KRYT 312253Z AUTO 00000KT 10SM FEW070 28/15 A2987 RMK AO2
SLP103 T02830150 $





000
SAUS41 KLWX 312258
MTRDMH
METAR KDMH 312254Z AUTO 31/13 A2984 RMK AO1 SLP106 T03060133





000
SAUS41 KLWX 312256
MTRNAK
METAR KNAK 312254Z AUTO 30005KT 10SM CLR 30/16 A2984 RMK AO2 SLP107
T03000156





000
SAUS41 KLWX 312236
MTRRSP
METAR KRSP 312154Z AUTO 10SM CLR 27/16 A2994 RMK AO2 SLP223
T02670161 $





000
SAUS41 KLWX 312200
MTRRYT
METAR KRYT 312153Z AUTO 00000KT 10SM CLR 29/14 A2988 RMK AO2 SLP105
T02890139 $





000
SAUS41 KLWX 312158
MTRDMH
METAR KDMH 312154Z AUTO 31/14 A2986 RMK AO1 SLP110 T03110139





000
SAUS41 KLWX 312155
MTRNAK
METAR KNAK 312154Z AUTO 27006KT 10SM CLR 31/14 A2985 RMK AO2 SLP110
T03060139





000
SAUS41 KLWX 312137
MTRRSP
METAR KRSP 312054Z AUTO 10SM FEW065 26/15 A2995 RMK AO2 SLP134
T02610150 56014 $





000
SAUS41 KLWX 312100
MTRRYT
METAR KRYT 312053Z AUTO 00000KT 10SM SCT070 28/13 A2989 RMK AO2
SLP110 T02830128 58014 $





000
SAUS41 KLWX 312058
MTRDMH
METAR KDMH 312054Z AUTO 32/13 A2986 RMK AO1 SLP112 T03170128 56015





000
SAUS41 KLWX 312055
MTRNAK
METAR KNAK 312054Z AUTO 32007KT 10SM CLR 31/14 A2986 RMK AO2 SLP113
T03110139 56015





000
SAUS41 KLWX 312037
MTRRSP
METAR KRSP 311954Z AUTO 10SM CLR 27/14 A2996 RMK AO2 SLP137
T02720139 $





000
SAUS41 KLWX 312000
MTRRYT
METAR KRYT 311953Z AUTO VRB03KT 10SM CLR 29/13 A2990 RMK AO2 SLP114
T02890128 $





000
SAUS41 KLWX 311958
MTRDMH
METAR KDMH 311954Z AUTO 32/13 A2987 RMK AO1 SLP115 T03170128





000
SAUS41 KLWX 311955
MTRNAK
METAR KNAK 311954Z AUTO 32006KT 10SM CLR 31/14 A2987 RMK AO2 SLP116
T03060144





000
SAUS41 KLWX 311955
MTRNAK
METAR KNAK 311954Z AUTO 32006KT 10SM CLR 31/14 A2987 RMK AO2 SLP116
T03060144





000
SAUS41 KLWX 311936
MTRRSP
METAR KRSP 311854Z AUTO 10SM FEW050 27/14 A2997 RMK AO2 SLP141
T02720139 $





000
SAUS41 KLWX 311900
MTRRYT
METAR KRYT 311853Z AUTO VRB04KT 10SM CLR 29/13 A2993 RMK AO2 SLP122
T02940133 $





000
SAUS41 KLWX 311900
MTRRYT
METAR KRYT 311853Z AUTO VRB04KT 10SM CLR 29/13 A2993 RMK AO2 SLP122
T02940133 $





000
SAUS41 KLWX 311858
MTRDMH
METAR KDMH 311854Z AUTO 31/14 A2989 RMK AO1 SLP123 T03110139





000
SAUS41 KLWX 311858
MTRDMH
METAR KDMH 311854Z AUTO 31/14 A2989 RMK AO1 SLP123 T03110139





000
SAUS41 KLWX 311855
MTRNAK
METAR KNAK 311854Z AUTO 34006KT 10SM CLR 31/12 A2989 RMK AO2 SLP124
T03060122





000
SAUS41 KLWX 311837
MTRRSP
METAR KRSP 311754Z AUTO 10SM FEW055 27/14 A2999 RMK AO2 SLP147
T02720139 10278 20206 56009 $





000
SAUS41 KLWX 311800
MTRRYT
METAR KRYT 311753Z AUTO 01003KT 10SM CLR 29/12 A2994 RMK AO2 SLP124
T02890122 10289 20200 58012 $





000
SAUS41 KLWX 311800
MTRRYT
METAR KRYT 311753Z AUTO 01003KT 10SM CLR 29/12 A2994 RMK AO2 SLP124
T02890122 10289 20200 58012 $





000
SAUS41 KLWX 311758
MTRDMH
METAR KDMH 311754Z AUTO 31/12 A2991 RMK AO1 SLP127 T03060122 10311
20250 56009





000
SAUS41 KLWX 311755
MTRNAK
METAR KNAK 311754Z AUTO 32006KT 10SM CLR 30/13 A2990 RMK AO2 SLP128
T03000133 10300 20244 56011





000
SAUS41 KLWX 311736
MTRRSP
METAR KRSP 311654Z AUTO 7SM FEW049 27/16 A3000 RMK AO2 SLP149
T02720156 $





000
SAUS41 KLWX 311700
MTRRYT
METAR KRYT 311653Z AUTO VRB03KT 10SM FEW055 28/14 A2995 RMK AO2
SLP128 T02830144 $





000
SAUS41 KLWX 311658
MTRDMH
METAR KDMH 311654Z AUTO 31/13 A2991 RMK AO1 SLP128 T03060128





000
SAUS41 KLWX 311657
MTRNAK
METAR KNAK 311654Z AUTO 35003KT 10SM CLR 30/14 A2991 RMK AO2 SLP130
T03000144





000
SAUS41 KLWX 311637
MTRRSP
METAR KRSP 311554Z AUTO 10SM CLR 26/16 A3001 RMK AO2 SLP154
T02560156 $





000
SAUS41 KLWX 311600
MTRRYT
METAR KRYT 311553Z AUTO VRB03KT 10SM CLR 27/16 A2996 RMK AO2 SLP134
T02670161 $





000
SAUS41 KLWX 311558
MTRDMH
METAR KDMH 311554Z AUTO 30/14 A2993 RMK AO1 SLP133 T03000144





000
SAUS41 KLWX 311558
MTRDMH
METAR KDMH 311554Z AUTO 30/14 A2993 RMK AO1 SLP133 T03000144





000
SAUS41 KLWX 311555
MTRNAK
METAR KNAK 311554Z AUTO 30006KT 10SM CLR 29/16 A2993 RMK AO2 SLP135
T02890156





000
SAUS41 KLWX 311536
MTRRSP
METAR KRSP 311454Z AUTO 10SM CLR 24/16 A3002 RMK AO2 SLP252
T02390161 55000 $





000
SAUS41 KLWX 311500
MTRRYT
METAR KRYT 311453Z AUTO VRB03KT 10SM CLR 25/16 A2997 RMK AO2 SLP137
T02500161 51000 $





000
SAUS41 KLWX 311458
MTRDMH
METAR KDMH 311454Z AUTO 29/15 A2993 RMK AO1 SLP136 T02890150 50000





000
SAUS41 KLWX 311455
MTRNAK
METAR KNAK 311454Z AUTO 33006KT 10SM CLR 28/17 A2994 RMK AO2 SLP139
T02830167 51001





000
SAUS41 KLWX 311455
MTRNAK
METAR KNAK 311454Z AUTO 33006KT 10SM CLR 28/17 A2994 RMK AO2 SLP139
T02830167 51001





000
SAUS41 KLWX 311437
MTRRSP
METAR KRSP 311354Z AUTO 10SM CLR 23/16 A3002 RMK AO2 SLP158
T02330161 $





000
SAUS41 KLWX 311400
MTRRYT
METAR KRYT 311353Z AUTO VRB03KT 10SM CLR 24/16 A2997 RMK AO2 SLP136
T02440161 $





000
SAUS41 KLWX 311358
MTRDMH
METAR KDMH 311354Z AUTO 28/15 A2994 RMK AO1 SLP137 T02830150





000
SAUS41 KLWX 311355
MTRNAK
METAR KNAK 311354Z AUTO 34005KT 10SM CLR 27/18 A2993 RMK AO2 SLP138
T02670178





000
SAUS41 KLWX 311336
MTRRSP
METAR KRSP 311254Z AUTO 10SM CLR 22/16 A3002 RMK AO2 SLP158
T02170156 $





000
SAUS41 KLWX 311336
MTRRSP
METAR KRSP 311254Z AUTO 10SM CLR 22/16 A3002 RMK AO2 SLP158
T02170156 $





000
SAUS41 KLWX 311300
MTRRYT
METAR KRYT 311253Z AUTO 00000KT 10SM CLR 23/15 A2997 RMK AO2 SLP137
T02280150 $





000
SAUS41 KLWX 311258
MTRDMH
METAR KDMH 311254Z AUTO 27/16 A2994 RMK AO1 SLP138 T02670156





000
SAUS41 KLWX 311255
MTRNAK
METAR KNAK 311254Z AUTO 00000KT 10SM CLR 26/16 A2993 RMK AO2 SLP138
T02610161





000
SAUS41 KLWX 311237
MTRRSP
METAR KRSP 311154Z AUTO 10SM CLR 21/15 A3002 RMK AO2 SLP159 70017
T02060150 10206 20167 53009 $





000
SAUS41 KLWX 311200
MTRRYT
METAR KRYT 311153Z AUTO 00000KT 10SM CLR 20/15 A2997 RMK AO2 SLP136
T02000150 10200 20161 53007 $





000
SAUS41 KLWX 311200
MTRRYT
METAR KRYT 311153Z AUTO 00000KT 10SM CLR 20/15 A2997 RMK AO2 SLP136
T02000150 10200 20161 53007 $





000
SAUS41 KLWX 311158
MTRDMH
METAR KDMH 311154Z AUTO 26/16 A2993 RMK AO1 SLP136 70038 T02560156
10256 20233 53007





000
SAUS41 KLWX 311158
MTRDMH
METAR KDMH 311154Z AUTO 26/16 A2993 RMK AO1 SLP136 70038 T02560156
10256 20233 53007





000
SAUS41 KLWX 311155
MTRNAK
METAR KNAK 311154Z AUTO 30005KT 10SM CLR 24/18 A2993 RMK AO2 SLP137
70005 T02440183 10256 20228 53012





000
SAUS41 KLWX 311155
MTRNAK
METAR KNAK 311154Z AUTO 30005KT 10SM CLR 24/18 A2993 RMK AO2 SLP137
70005 T02440183 10256 20228 53012





000
SAUS41 KLWX 311136
MTRRSP
METAR KRSP 311054Z AUTO 10SM CLR 19/14 A3001 RMK AO2 SLP156
T01890139 $





000
SAUS41 KLWX 311136
MTRRSP
METAR KRSP 311054Z AUTO 10SM CLR 19/14 A3001 RMK AO2 SLP156
T01890139 $





000
SAUS41 KLWX 311100
MTRRYT
METAR KRYT 311053Z AUTO 00000KT 10SM CLR 17/14 A2995 RMK AO2 SLP131
T01720144 $





000
SAUS41 KLWX 311058
MTRDMH
METAR KDMH 311054Z AUTO 24/15 A2992 RMK AO1 SLP133 T02390150





000
SAUS41 KLWX 311056
MTRNAK
METAR KNAK 311054Z AUTO VRB04KT 10SM CLR 23/18 A2992 RMK AO2 SLP133
T02330183





000
SAUS41 KLWX 311036
MTRRSP
METAR KRSP 310954Z AUTO 10SM CLR 18/13 A3000 RMK AO2 SLP150
T01780128 $





000
SAUS41 KLWX 311000
MTRRYT
METAR KRYT 310953Z AUTO 00000KT 10SM CLR 16/14 A2995 RMK AO2 SLP128
T01610139 $





000
SAUS41 KLWX 310958
MTRDMH
METAR KDMH 310954Z AUTO 24/15 A2992 RMK AO1 SLP130 T02390150





000
SAUS41 KLWX 310955
MTRNAK
METAR KNAK 310954Z AUTO 35006KT 10SM CLR 24/18 A2990 RMK AO2 SLP128
T02390183





000
SAUS41 KLWX 310936
MTRRSP
METAR KRSP 310854Z AUTO 10SM CLR 17/14 A2999 RMK AO2 SLP148
T01720139 52000 $





000
SAUS41 KLWX 310900
MTRRYT
METAR KRYT 310853Z AUTO 00000KT 10SM CLR 17/14 A2995 RMK AO2 SLP129
T01670144 55000 $





000
SAUS41 KLWX 310900
MTRRYT
METAR KRYT 310853Z AUTO 00000KT 10SM CLR 17/14 A2995 RMK AO2 SLP129
T01670144 55000 $





000
SAUS41 KLWX 310858
MTRDMH
METAR KDMH 310854Z AUTO 24/15 A2991 RMK AO1 SLP129 T02440150 51006





000
SAUS41 KLWX 310855
MTRNAK
METAR KNAK 310854Z AUTO 31004KT 10SM CLR 24/19 A2990 RMK AO2 SLP126
T02390189 51007





    US Dept of Commerce
    National Oceanic and Atmospheric Administration
    National Weather Service
    1325 East West Highway
    Silver Spring, MD 20910
    Page Author: NWS Internet Services Team
Disclaimer
Information Quality
Credits
Glossary
Privacy Policy
Freedom of Information Act (FOIA)
About Us
Career Opportunities